Time;durP1;ratioP1;P1;durP2;ratioP2;P2;SDS_P1;SDS_P2;PMS_P1;PMS_P2;Temp;Humidity;BMP_temperature;BMP_pressure;BME280_temperature;BME280_humidity;BME280_pressure;Samples;Min_cycle;Max_cycle;Signal;HPM_P1;HPM_P2
2022/06/01 00:02:15;;;;;;;6.23;4.70;;;14.70;75.90;;;;;;5038425;28;20232;-75
2022/06/01 00:04:42;;;;;;;8.20;4.73;;;14.60;77.40;;;;;;5043290;28;20550;-71
2022/06/01 00:07:09;;;;;;;5.63;4.50;;;14.50;78.40;;;;;;5037562;28;20834;-74
2022/06/01 00:09:34;;;;;;;5.83;4.33;;;14.40;78.40;;;;;;5046931;28;20427;-74
2022/06/01 00:12:00;;;;;;;6.17;4.10;;;14.40;78.30;;;;;;5045865;28;20192;-75
2022/06/01 00:14:26;;;;;;;5.53;4.07;;;14.30;78.00;;;;;;5041841;28;20181;-73
2022/06/01 00:16:55;;;;;;;5.70;4.00;;;14.30;78.00;;;;;;5044607;28;20949;-73
2022/06/01 00:19:22;;;;;;;6.93;4.20;;;14.30;78.10;;;;;;5042647;28;20192;-75
2022/06/01 00:24:32;;;;;;;8.93;4.00;;;14.30;78.30;;;;;;5050079;28;20505;-73
2022/06/01 00:26:58;;;;;;;6.87;4.13;;;14.30;78.70;;;;;;5040467;28;20448;-73
2022/06/01 00:29:24;;;;;;;5.97;4.13;;;14.30;77.60;;;;;;5046369;28;20186;-73
2022/06/01 00:31:49;;;;;;;8.53;4.80;;;14.20;78.10;;;;;;5052274;28;20272;-74
2022/06/01 00:34:15;;;;;;;10.40;4.77;;;14.10;77.70;;;;;;5041313;28;20189;-73
2022/06/01 00:36:41;;;;;;;6.97;4.87;;;14.10;78.30;;;;;;5051297;28;20228;-72
2022/06/01 00:39:07;;;;;;;5.60;4.57;;;14.10;78.70;;;;;;5071872;28;20200;-72
2022/06/01 00:41:32;;;;;;;5.73;4.40;;;14.00;79.20;;;;;;5055169;28;20193;-76
2022/06/01 00:43:58;;;;;;;6.33;4.57;;;13.90;79.50;;;;;;5035945;28;20455;-73
2022/06/01 00:46:24;;;;;;;5.70;4.70;;;13.90;79.30;;;;;;5043200;28;20219;-75
2022/06/01 00:48:54;;;;;;;11.10;3.83;;;13.90;79.50;;;;;;5042214;28;20265;-75
2022/06/01 00:51:26;;;;;;;6.67;4.80;;;13.80;79.50;;;;;;5046128;28;20431;-75
2022/06/01 00:53:53;;;;;;;5.00;3.90;;;13.80;79.30;;;;;;5039645;28;20481;-72
2022/06/01 00:56:34;;;;;;;7.87;4.30;;;13.70;79.20;;;;;;5046263;28;20471;-72
2022/06/01 00:59:03;;;;;;;5.77;4.10;;;13.70;77.80;;;;;;5049812;28;20448;-72
2022/06/01 01:01:30;;;;;;;7.33;4.50;;;13.70;78.10;;;;;;5049816;28;20903;-73
2022/06/01 01:03:59;;;;;;;6.63;4.67;;;13.80;79.00;;;;;;5042165;28;20474;-73
2022/06/01 01:06:28;;;;;;;7.20;4.63;;;13.80;79.20;;;;;;5041828;28;20880;-72
2022/06/01 01:08:56;;;;;;;5.93;4.40;;;13.70;79.20;;;;;;5043814;28;20427;-73
2022/06/01 01:11:44;;;;;;;7.00;4.33;;;13.70;79.30;;;;;;5040401;28;20432;-72
2022/06/01 01:14:13;;;;;;;10.37;4.70;;;13.70;79.50;;;;;;5044276;28;20433;-73
2022/06/01 01:16:39;;;;;;;7.23;4.83;;;13.70;79.30;;;;;;5040317;28;20459;-73
2022/06/01 01:19:13;;;;;;;5.30;4.37;;;13.70;79.20;;;;;;5042026;28;20423;-71
2022/06/01 01:22:20;;;;;;;6.00;4.57;;;13.60;79.50;;;;;;5041199;28;20424;-73
2022/06/01 01:25:23;;;;;;;5.30;3.70;;;13.60;79.50;;;;;;5043599;28;20423;-72
2022/06/01 01:27:51;;;;;;;7.93;3.70;;;13.50;79.00;;;;;;5049346;28;20416;-70
2022/06/01 01:30:26;;;;;;;5.37;4.40;;;13.60;79.00;;;;;;5047232;28;20442;-72
2022/06/01 01:32:52;;;;;;;4.27;3.40;;;13.60;78.10;;;;;;5046910;28;20418;-72
2022/06/01 01:35:19;;;;;;;4.23;3.50;;;13.60;77.00;;;;;;5040189;28;20454;-73
2022/06/01 01:37:48;;;;;;;6.70;4.50;;;13.80;76.20;;;;;;5050311;28;20415;-73
2022/06/01 01:40:14;;;;;;;8.30;4.73;;;13.80;76.20;;;;;;5047305;28;20411;-72
2022/06/01 01:42:40;;;;;;;7.53;4.40;;;13.80;77.30;;;;;;5047905;28;20451;-73
2022/06/01 01:45:18;;;;;;;5.60;3.70;;;13.70;77.10;;;;;;5050554;28;20462;-74
2022/06/01 01:47:44;;;;;;;5.60;4.30;;;13.70;77.30;;;;;;5046684;28;20180;-72
2022/06/01 01:50:12;;;;;;;4.87;4.27;;;13.70;77.40;;;;;;5048967;28;20506;-73
2022/06/01 01:52:38;;;;;;;8.50;4.27;;;13.80;77.30;;;;;;5043962;28;20198;-72
2022/06/01 01:55:37;;;;;;;4.67;4.30;;;13.80;77.40;;;;;;5052568;28;20447;-74
2022/06/01 01:58:30;;;;;;;7.70;4.57;;;13.70;77.60;;;;;;5049800;28;20446;-74
2022/06/01 02:01:03;;;;;;;5.33;4.23;;;13.70;77.70;;;;;;5050884;28;20427;-72
2022/06/01 02:03:35;;;;;;;6.03;4.50;;;13.60;77.70;;;;;;5043814;28;20590;-74
2022/06/01 02:06:04;;;;;;;5.13;3.87;;;13.50;78.00;;;;;;5048752;28;20474;-72
2022/06/01 02:08:46;;;;;;;5.80;4.10;;;13.50;78.10;;;;;;5053833;28;20423;-73
2022/06/01 02:14:36;;;;;;;4.77;3.73;;;13.50;77.40;;;;;;5042175;28;20411;-72
2022/06/01 02:17:15;;;;;;;5.07;4.10;;;13.50;76.80;;;;;;5054377;28;20529;-72
2022/06/01 02:20:01;;;;;;;9.10;4.60;;;13.50;76.80;;;;;;5047374;28;20422;-71
2022/06/01 02:22:27;;;;;;;5.60;4.40;;;13.50;77.70;;;;;;5044074;28;20423;-72
2022/06/01 02:24:53;;;;;;;6.30;4.00;;;13.40;78.10;;;;;;5049968;28;20447;-74
2022/06/01 02:27:20;;;;;;;8.70;4.20;;;13.20;78.10;;;;;;5052667;28;20423;-73
2022/06/01 02:30:12;;;;;;;5.43;3.70;;;13.20;78.70;;;;;;5043009;28;21013;-71
2022/06/01 02:32:40;;;;;;;6.63;4.50;;;13.30;78.60;;;;;;5042726;28;20423;-73
2022/06/01 02:35:08;;;;;;;4.33;3.53;;;13.30;78.10;;;;;;5041969;28;20455;-72
2022/06/01 02:37:37;;;;;;;7.50;3.90;;;13.20;78.30;;;;;;5046580;28;20506;-73
2022/06/01 02:40:07;;;;;;;7.00;4.53;;;13.20;78.40;;;;;;5045139;28;20450;-71
2022/06/01 02:42:33;;;;;;;5.60;4.37;;;13.10;78.70;;;;;;5049860;28;20422;-71
2022/06/01 02:45:07;;;;;;;10.40;4.37;;;13.00;79.60;;;;;;5042181;28;20488;-73
2022/06/01 02:47:40;;;;;;;8.10;4.50;;;13.00;80.00;;;;;;5042930;28;20838;-72
2022/06/01 02:50:07;;;;;;;6.30;4.23;;;13.10;79.30;;;;;;5040236;28;20424;-73
2022/06/01 02:52:34;;;;;;;5.90;4.10;;;13.10;79.00;;;;;;5045018;28;20482;-73
2022/06/01 02:55:00;;;;;;;5.70;3.97;;;13.00;78.90;;;;;;5038680;28;20467;-73
2022/06/01 02:57:26;;;;;;;4.13;3.43;;;13.00;78.90;;;;;;5042078;28;20452;-74
2022/06/01 02:59:52;;;;;;;5.33;3.50;;;13.00;79.20;;;;;;5038822;28;20422;-74
2022/06/01 03:02:18;;;;;;;5.00;4.33;;;13.00;78.90;;;;;;5043121;28;20197;-73
2022/06/01 03:04:45;;;;;;;5.40;4.00;;;12.90;78.90;;;;;;5036351;28;20960;-72
2022/06/01 03:07:12;;;;;;;6.10;4.10;;;12.90;79.00;;;;;;5043832;28;20434;-72
2022/06/01 03:09:38;;;;;;;4.33;3.90;;;12.90;79.20;;;;;;5046147;28;20425;-72
2022/06/01 03:12:06;;;;;;;6.90;4.40;;;12.90;79.30;;;;;;5044823;28;20426;-73
2022/06/01 03:14:33;;;;;;;5.23;4.10;;;12.80;79.50;;;;;;5049975;28;20508;-73
2022/06/01 03:16:58;;;;;;;7.03;4.10;;;12.80;79.70;;;;;;5048606;28;20434;-74
2022/06/01 03:19:25;;;;;;;6.03;4.23;;;12.80;80.00;;;;;;5052965;28;20425;-74
2022/06/01 03:21:51;;;;;;;5.57;3.87;;;12.80;80.00;;;;;;5053058;28;20657;-72
2022/06/01 03:24:17;;;;;;;6.00;4.00;;;12.80;79.90;;;;;;5051606;28;20554;-74
2022/06/01 03:26:43;;;;;;;7.17;4.80;;;12.80;80.00;;;;;;5045842;28;20446;-75
2022/06/01 03:29:09;;;;;;;5.13;4.63;;;12.80;80.90;;;;;;5053371;28;20972;-73
2022/06/01 03:31:35;;;;;;;5.43;4.17;;;12.70;81.20;;;;;;5051743;28;20263;-73
2022/06/01 03:34:01;;;;;;;9.10;5.20;;;12.70;81.80;;;;;;5048376;28;20840;-72
2022/06/01 03:36:27;;;;;;;9.20;4.47;;;12.70;82.40;;;;;;5051579;28;20517;-72
2022/06/01 03:38:53;;;;;;;6.97;4.47;;;12.70;82.40;;;;;;5051298;28;20459;-75
2022/06/01 03:41:18;;;;;;;6.93;4.00;;;12.80;82.40;;;;;;5050677;28;20220;-73
2022/06/01 03:46:32;;;;;;;7.33;4.37;;;12.80;82.10;;;;;;5040895;28;20251;-76
2022/06/01 03:48:58;;;;;;;6.13;4.47;;;12.80;81.70;;;;;;5045312;28;20518;-74
2022/06/01 03:51:26;;;;;;;7.07;4.70;;;12.80;81.40;;;;;;5036366;28;20519;-75
2022/06/01 03:53:55;;;;;;;5.77;4.80;;;12.70;81.70;;;;;;5047482;28;20176;-74
2022/06/01 03:56:22;;;;;;;7.60;4.90;;;12.80;81.70;;;;;;5038513;28;20462;-74
2022/06/01 03:58:51;;;;;;;7.43;4.20;;;12.80;81.70;;;;;;5051062;28;20454;-73
2022/06/01 04:01:18;;;;;;;7.23;4.33;;;12.80;81.70;;;;;;5046147;28;20482;-74
2022/06/01 04:03:45;;;;;;;11.30;5.20;;;12.80;81.70;;;;;;5047307;28;20512;-74
2022/06/01 04:06:11;;;;;;;6.20;4.70;;;12.80;81.70;;;;;;5052484;28;20463;-74
2022/06/01 04:08:37;;;;;;;6.50;4.80;;;12.80;81.80;;;;;;5047635;28;20428;-73
2022/06/01 04:11:03;;;;;;;8.30;5.07;;;12.80;82.10;;;;;;5049117;28;20453;-73
2022/06/01 04:13:29;;;;;;;7.63;5.00;;;12.90;81.90;;;;;;5053225;28;20423;-74
2022/06/01 04:15:55;;;;;;;5.83;4.30;;;12.80;82.10;;;;;;5050580;28;20854;-74
2022/06/01 04:18:21;;;;;;;8.90;5.40;;;12.90;82.10;;;;;;5046044;28;20437;-73
2022/06/01 04:20:51;;;;;;;6.50;4.47;;;12.90;82.10;;;;;;5037757;28;20541;-73
2022/06/01 04:23:17;;;;;;;7.60;5.03;;;12.90;82.20;;;;;;5035812;28;20506;-73
2022/06/01 04:25:42;;;;;;;7.40;5.03;;;12.90;82.50;;;;;;5034621;28;20463;-73
2022/06/01 04:28:08;;;;;;;7.03;4.87;;;13.00;82.70;;;;;;5040744;28;20185;-73
2022/06/01 04:30:34;;;;;;;16.63;5.70;;;13.00;82.80;;;;;;5033841;28;20193;-75
2022/06/01 04:33:02;;;;;;;7.53;4.93;;;12.90;83.10;;;;;;5041508;28;20424;-74
2022/06/01 04:35:27;;;;;;;8.30;6.33;;;13.00;83.40;;;;;;5038685;28;20204;-75
2022/06/01 04:37:53;;;;;;;8.93;5.23;;;13.00;83.40;;;;;;5045710;28;20791;-75
2022/06/01 04:40:21;;;;;;;7.80;5.20;;;13.00;83.80;;;;;;5049470;28;20619;-73
2022/06/01 04:42:47;;;;;;;7.50;5.10;;;13.10;83.60;;;;;;5042887;28;20516;-74
2022/06/01 04:45:15;;;;;;;9.90;4.90;;;13.20;83.70;;;;;;5041907;28;20977;-74
2022/06/01 04:47:41;;;;;;;7.93;5.37;;;13.30;83.30;;;;;;5045513;28;20663;-76
2022/06/01 04:50:09;;;;;;;6.00;4.93;;;13.30;83.30;;;;;;5049244;28;20652;-75
2022/06/01 04:52:35;;;;;;;8.20;5.43;;;13.40;83.30;;;;;;5035715;28;21106;-74
2022/06/01 04:55:01;;;;;;;7.13;5.30;;;13.50;82.50;;;;;;5044507;28;20538;-73
2022/06/01 04:57:27;;;;;;;7.30;4.50;;;13.60;82.70;;;;;;5042760;28;20299;-73
2022/06/01 04:59:53;;;;;;;6.60;4.70;;;13.70;82.40;;;;;;5048234;28;20456;-74
2022/06/01 05:02:19;;;;;;;5.37;4.40;;;13.70;82.10;;;;;;5043886;28;20944;-74
2022/06/01 05:04:44;;;;;;;6.73;4.60;;;13.80;81.90;;;;;;5050133;28;20201;-74
2022/06/01 05:07:10;;;;;;;10.30;5.03;;;13.90;81.90;;;;;;5060184;28;20267;-74
2022/06/01 05:09:36;;;;;;;9.80;5.73;;;14.10;81.20;;;;;;5055998;28;20531;-73
2022/06/01 05:12:02;;;;;;;7.60;5.27;;;14.20;80.90;;;;;;5061625;28;20187;-74
2022/06/01 05:14:28;;;;;;;6.60;4.33;;;14.30;80.80;;;;;;5059503;28;20438;-73
2022/06/01 05:16:58;;;;;;;6.53;4.40;;;14.30;80.80;;;;;;5056654;28;20608;-73
2022/06/01 05:19:24;;;;;;;6.80;5.23;;;14.40;80.80;;;;;;5054536;28;20659;-74
2022/06/01 05:21:50;;;;;;;5.43;4.10;;;14.40;80.80;;;;;;5050122;28;20427;-75
2022/06/01 05:24:15;;;;;;;11.00;5.03;;;14.40;81.20;;;;;;5050278;28;20464;-73
2022/06/01 05:26:41;;;;;;;8.53;4.50;;;14.50;80.60;;;;;;5047137;28;20675;-75
2022/06/01 05:29:07;;;;;;;5.93;4.23;;;14.60;80.80;;;;;;5052516;28;20299;-75
2022/06/01 05:31:33;;;;;;;8.10;4.90;;;14.70;80.60;;;;;;5047179;28;20189;-76
2022/06/01 05:33:58;;;;;;;7.20;4.40;;;14.80;80.30;;;;;;5052890;28;20585;-74
2022/06/01 05:36:24;;;;;;;8.00;4.37;;;14.90;80.00;;;;;;5048413;28;20305;-75
2022/06/01 05:38:50;;;;;;;5.77;4.50;;;15.00;79.90;;;;;;5060881;28;20184;-75
2022/06/01 05:41:16;;;;;;;7.63;4.80;;;15.10;79.70;;;;;;5048656;28;20428;-75
2022/06/01 05:43:42;;;;;;;5.77;3.90;;;15.20;79.30;;;;;;5048501;28;20934;-73
2022/06/01 05:46:09;;;;;;;6.87;4.87;;;15.30;78.90;;;;;;5046238;28;20455;-74
2022/06/01 05:48:36;;;;;;;14.73;4.47;;;15.30;78.90;;;;;;5049469;28;20457;-74
2022/06/01 05:51:02;;;;;;;8.93;4.90;;;15.50;78.90;;;;;;5050333;28;20434;-74
2022/06/01 05:53:27;;;;;;;8.03;4.73;;;15.60;78.60;;;;;;5046449;28;20821;-75
2022/06/01 05:55:53;;;;;;;6.07;4.50;;;15.60;78.00;;;;;;5053029;28;20455;-74
2022/06/01 05:58:27;;;;;;;5.20;4.17;;;15.70;77.80;;;;;;5046313;28;20211;-73
2022/06/01 06:00:54;;;;;;;6.17;4.47;;;15.90;77.60;;;;;;5049119;28;20188;-73
2022/06/01 06:03:23;;;;;;;6.13;4.20;;;16.00;77.30;;;;;;5042361;28;20453;-73
2022/06/01 06:08:34;;;;;;;8.23;4.60;;;16.10;76.70;;;;;;5046054;28;20430;-73
2022/06/01 06:11:00;;;;;;;6.67;4.37;;;16.30;75.80;;;;;;5046035;28;20507;-72
2022/06/01 06:13:26;;;;;;;5.70;4.33;;;16.40;75.50;;;;;;5044359;28;20568;-73
2022/06/01 06:15:52;;;;;;;10.07;4.23;;;16.40;75.50;;;;;;5050003;28;20275;-74
2022/06/01 06:18:17;;;;;;;12.00;4.37;;;16.50;75.70;;;;;;5047930;28;20198;-73
2022/06/01 06:20:44;;;;;;;4.70;3.90;;;16.50;75.50;;;;;;5047562;28;20713;-74
2022/06/01 06:23:11;;;;;;;7.20;3.70;;;16.60;75.40;;;;;;5038883;28;20203;-75
2022/06/01 06:25:38;;;;;;;6.63;4.13;;;16.70;74.80;;;;;;5039474;28;20536;-73
2022/06/01 06:28:05;;;;;;;5.40;4.20;;;16.80;74.30;;;;;;5044651;28;20445;-75
2022/06/01 06:30:30;;;;;;;6.23;4.40;;;16.90;74.20;;;;;;5047753;28;20419;-74
2022/06/01 06:32:56;;;;;;;5.97;4.37;;;16.90;73.70;;;;;;5043509;28;20430;-75
2022/06/01 06:35:22;;;;;;;4.87;3.70;;;17.00;73.60;;;;;;5044630;28;20295;-73
2022/06/01 06:37:47;;;;;;;7.23;4.37;;;17.00;73.60;;;;;;5042423;28;20193;-73
2022/06/01 06:40:14;;;;;;;5.83;4.43;;;17.10;73.30;;;;;;5041160;28;20212;-74
2022/06/01 06:42:40;;;;;;;10.47;3.90;;;17.20;72.90;;;;;;5048767;28;20236;-73
2022/06/01 06:45:06;;;;;;;11.67;4.10;;;17.30;72.90;;;;;;5043081;28;20463;-75
2022/06/01 06:47:32;;;;;;;5.33;4.03;;;17.40;72.40;;;;;;5045880;28;20416;-73
2022/06/01 06:49:59;;;;;;;6.87;4.33;;;17.50;71.40;;;;;;5039102;28;20435;-75
2022/06/01 06:52:26;;;;;;;12.30;4.70;;;17.50;71.40;;;;;;5049832;28;21097;-73
2022/06/01 06:54:52;;;;;;;9.73;4.27;;;17.60;71.60;;;;;;5040369;28;20918;-75
2022/06/01 06:57:18;;;;;;;7.20;3.43;;;17.70;69.90;;;;;;5042347;28;20454;-74
2022/06/01 06:59:44;;;;;;;6.20;3.93;;;17.90;69.20;;;;;;5036983;28;20427;-72
2022/06/01 07:02:10;;;;;;;9.33;3.53;;;18.00;68.20;;;;;;5044923;28;20188;-75
2022/06/01 07:04:36;;;;;;;5.43;3.83;;;18.00;67.70;;;;;;5036538;28;21232;-74
2022/06/01 07:07:03;;;;;;;5.50;3.90;;;18.20;67.20;;;;;;5042836;28;20450;-73
2022/06/01 07:09:29;;;;;;;6.63;4.00;;;18.30;67.50;;;;;;5047023;28;20275;-74
2022/06/01 07:11:54;;;;;;;5.20;3.73;;;18.40;67.30;;;;;;5040034;28;20416;-73
2022/06/01 07:14:20;;;;;;;5.10;3.53;;;18.40;67.00;;;;;;5044483;28;20433;-74
2022/06/01 07:16:46;;;;;;;5.67;3.53;;;18.50;66.00;;;;;;5041168;28;20222;-73
2022/06/01 07:19:11;;;;;;;5.60;3.93;;;18.50;66.00;;;;;;5038722;28;20210;-75
2022/06/01 07:21:37;;;;;;;5.13;3.90;;;18.60;65.40;;;;;;5050939;28;20205;-73
2022/06/01 07:24:07;;;;;;;4.27;3.37;;;18.70;64.80;;;;;;5043025;28;20682;-75
2022/06/01 07:26:44;;;;;;;5.00;3.40;;;18.70;64.10;;;;;;5038684;28;20310;-73
2022/06/01 07:29:12;;;;;;;5.17;3.90;;;18.80;62.90;;;;;;5042672;28;20938;-73
2022/06/01 07:31:38;;;;;;;3.50;3.30;;;18.80;63.70;;;;;;5039804;28;20520;-75
2022/06/01 07:34:03;;;;;;;7.37;3.80;;;18.90;62.00;;;;;;5039058;28;20552;-74
2022/06/01 07:36:30;;;;;;;5.53;3.87;;;19.00;62.60;;;;;;5038384;28;20223;-75
2022/06/01 07:44:28;;;;;;;6.47;3.77;;;19.20;62.00;;;;;;5040679;28;20523;-74
2022/06/01 07:46:54;;;;;;;5.30;3.20;;;19.30;61.90;;;;;;5042273;28;20829;-73
2022/06/01 07:49:20;;;;;;;5.13;3.47;;;19.40;60.00;;;;;;5043266;28;20186;-72
2022/06/01 07:51:47;;;;;;;6.20;3.20;;;19.50;60.40;;;;;;5043224;28;20605;-75
2022/06/01 07:54:14;;;;;;;5.63;2.93;;;19.60;59.50;;;;;;5042958;28;20274;-72
2022/06/01 07:56:40;;;;;;;6.60;3.77;;;19.60;57.30;;;;;;5037315;28;20468;-74
2022/06/01 07:59:06;;;;;;;6.70;3.47;;;19.60;57.60;;;;;;5041223;28;20454;-73
2022/06/01 08:01:35;;;;;;;9.63;3.70;;;19.60;57.30;;;;;;5037014;28;20572;-72
2022/06/01 08:04:03;;;;;;;11.87;3.90;;;19.70;57.40;;;;;;5043268;28;20549;-73
2022/06/01 08:06:29;;;;;;;9.63;3.20;;;19.70;58.10;;;;;;5041959;28;20499;-76
2022/06/01 08:08:55;;;;;;;6.37;3.13;;;19.70;58.70;;;;;;5037304;28;20924;-73
2022/06/01 08:14:07;;;;;;;4.33;3.27;;;20.00;59.30;;;;;;5048695;28;20203;-73
2022/06/01 08:16:32;;;;;;;5.83;3.73;;;20.00;58.50;;;;;;5045868;28;20463;-73
2022/06/01 08:18:58;;;;;;;6.30;4.03;;;20.10;56.60;;;;;;5035747;28;20190;-75
2022/06/01 08:21:24;;;;;;;7.37;3.20;;;20.20;54.20;;;;;;5044041;28;20213;-73
2022/06/01 08:23:49;;;;;;;4.90;2.63;;;20.30;52.20;;;;;;5035559;28;20204;-73
2022/06/01 08:26:15;;;;;;;5.57;3.10;;;20.30;51.00;;;;;;5040682;28;20254;-72
2022/06/01 08:28:41;;;;;;;4.80;2.90;;;20.40;50.70;;;;;;5049362;28;20185;-73
2022/06/01 08:31:06;;;;;;;3.47;2.33;;;20.50;49.70;;;;;;5046597;28;20284;-74
2022/06/01 08:33:32;;;;;;;3.60;2.53;;;20.50;45.50;;;;;;5044040;28;20242;-74
2022/06/01 08:35:58;;;;;;;3.30;2.10;;;20.60;45.80;;;;;;5044713;28;20683;-75
2022/06/01 08:38:24;;;;;;;4.37;2.50;;;20.60;46.90;;;;;;5044104;28;20199;-74
2022/06/01 08:41:01;;;;;;;5.50;2.80;;;20.80;45.30;;;;;;5045881;28;20549;-76
2022/06/01 08:43:33;;;;;;;3.93;3.40;;;21.00;45.50;;;;;;5042353;28;20223;-72
2022/06/01 08:46:01;;;;;;;3.40;2.73;;;21.00;45.90;;;;;;5039937;28;20467;-73
2022/06/01 08:48:39;;;;;;;5.77;3.30;;;21.00;45.30;;;;;;5038559;28;20471;-72
2022/06/01 08:51:05;;;;;;;4.70;3.20;;;21.10;46.30;;;;;;5040494;28;20438;-74
2022/06/01 08:53:31;;;;;;;5.50;2.70;;;21.00;47.50;;;;;;5036905;28;20924;-74
2022/06/01 08:56:11;;;;;;;4.43;3.00;;;21.00;47.90;;;;;;5041146;28;20464;-75
2022/06/01 08:58:55;;;;;;;3.00;2.60;;;21.10;46.60;;;;;;5046702;28;20981;-74
2022/06/01 09:01:24;;;;;;;4.03;2.97;;;21.20;46.30;;;;;;5044775;28;20475;-73
2022/06/01 09:04:04;;;;;;;4.33;3.27;;;21.40;46.90;;;;;;5045884;28;20458;-73
2022/06/01 09:06:37;;;;;;;5.40;3.00;;;21.60;46.50;;;;;;5037136;28;21085;-73
2022/06/01 09:09:40;;;;;;;12.77;3.87;;;21.50;48.20;;;;;;5046645;28;20428;-73
2022/06/01 09:12:07;;;;;;;6.87;3.00;;;21.20;49.70;;;;;;5046511;28;20451;-74
2022/06/01 09:14:37;;;;;;;4.33;3.27;;;20.90;51.30;;;;;;5042547;28;20446;-74
2022/06/01 09:17:03;;;;;;;5.03;3.80;;;20.60;50.60;;;;;;5048235;28;20501;-73
2022/06/01 09:22:37;;;;;;;3.73;2.90;;;20.40;50.50;;;;;;5042107;28;20450;-75
2022/06/01 09:22:38;;;;;;;6.47;3.63;;;20.40;51.00;;;;;;5045279;28;20506;-73
2022/06/01 09:25:19;;;;;;;7.30;2.93;;;20.40;49.80;;;;;;5044625;28;20464;-73
2022/06/01 09:27:48;;;;;;;5.37;2.67;;;20.40;50.10;;;;;;5054606;28;20423;-74
2022/06/01 09:30:36;;;;;;;8.07;3.70;;;20.50;50.20;;;;;;5050863;28;20419;-74
2022/06/01 09:33:20;;;;;;;4.00;3.10;;;20.60;50.10;;;;;;5040847;28;20906;-74
2022/06/01 09:35:55;;;;;;;4.97;3.17;;;20.60;50.30;;;;;;5040449;28;20593;-75
2022/06/01 09:38:36;;;;;;;4.53;3.30;;;20.70;48.70;;;;;;5039526;28;20523;-77
2022/06/01 09:41:21;;;;;;;8.67;3.00;;;20.70;49.40;;;;;;5041391;28;20420;-75
2022/06/01 09:43:59;;;;;;;11.10;3.70;;;20.90;49.40;;;;;;5042727;28;20475;-73
2022/06/01 09:46:48;;;;;;;4.97;3.20;;;21.10;48.90;;;;;;5041533;28;20465;-73
2022/06/01 09:49:27;;;;;;;4.23;3.23;;;21.20;48.50;;;;;;5043692;28;20456;-73
2022/06/01 09:52:00;;;;;;;7.37;3.30;;;21.20;48.70;;;;;;5039875;28;20440;-73
2022/06/01 09:54:34;;;;;;;5.30;3.40;;;21.40;48.70;;;;;;5042994;28;20429;-71
2022/06/01 09:57:16;;;;;;;4.30;3.00;;;21.50;48.10;;;;;;5036823;28;20916;-73
2022/06/01 10:08:24;;;;;;;3.30;2.90;;;22.10;42.30;;;;;;5044377;28;20570;-75
2022/06/01 10:11:00;;;;;;;2.90;2.50;;;22.50;42.60;;;;;;5048951;28;20438;-72
2022/06/01 10:13:36;;;;;;;4.07;2.60;;;22.80;42.40;;;;;;5046289;28;20416;-75
2022/06/01 10:16:17;;;;;;;2.90;2.00;;;23.20;37.60;;;;;;5038693;28;20520;-74
2022/06/01 10:18:44;;;;;;;3.90;2.00;;;23.50;33.70;;;;;;5042793;28;20428;-73
2022/06/01 10:21:17;;;;;;;3.63;1.73;;;23.70;33.90;;;;;;5043837;28;20843;-72
2022/06/01 10:23:43;;;;;;;2.40;1.90;;;23.40;34.40;;;;;;5041089;28;20560;-72
2022/06/01 10:26:12;;;;;;;5.50;2.37;;;23.30;35.60;;;;;;5040703;28;20547;-73
2022/06/01 10:28:41;;;;;;;3.80;1.97;;;23.00;35.90;;;;;;5044518;28;20186;-72
2022/06/01 10:31:18;;;;;;;3.47;1.80;;;23.10;34.10;;;;;;5041238;28;20982;-74
2022/06/01 10:33:50;;;;;;;2.70;1.90;;;23.10;32.70;;;;;;5043268;28;20786;-72
2022/06/01 10:36:41;;;;;;;4.93;2.10;;;23.00;32.90;;;;;;5044219;28;20470;-74
2022/06/01 10:39:11;;;;;;;3.10;2.23;;;22.70;32.80;;;;;;5046313;28;20469;-73
2022/06/01 10:41:52;;;;;;;3.40;1.90;;;22.50;33.60;;;;;;5048262;28;20937;-71
2022/06/01 10:44:29;;;;;;;2.80;2.00;;;22.40;33.30;;;;;;5047771;28;20461;-73
2022/06/01 10:47:04;;;;;;;2.63;2.03;;;22.60;34.00;;;;;;5046059;28;20580;-73
2022/06/01 10:49:56;;;;;;;2.50;2.30;;;22.90;32.80;;;;;;5041131;28;20411;-72
2022/06/01 10:52:33;;;;;;;5.33;2.17;;;23.00;34.10;;;;;;5050475;28;20422;-73
2022/06/01 10:55:19;;;;;;;8.77;3.67;;;23.50;35.10;;;;;;5040167;28;20449;-75
2022/06/01 10:57:47;;;;;;;5.60;2.30;;;23.60;34.50;;;;;;5038069;28;20540;-74
2022/06/01 11:00:21;;;;;;;3.87;2.63;;;23.50;33.70;;;;;;5043536;28;20437;-74
2022/06/01 11:03:15;;;;;;;3.20;2.00;;;23.50;33.90;;;;;;5044767;28;20460;-74
2022/06/01 11:05:48;;;;;;;3.00;2.27;;;23.50;33.50;;;;;;5043905;28;20462;-74
2022/06/01 11:08:39;;;;;;;4.20;2.30;;;23.40;33.30;;;;;;5035806;28;20494;-74
2022/06/01 11:11:10;;;;;;;2.37;2.17;;;23.40;32.90;;;;;;5042976;28;20893;-73
2022/06/01 11:14:18;;;;;;;3.70;2.10;;;23.50;33.50;;;;;;5043208;28;20920;-72
2022/06/01 11:17:01;;;;;;;4.43;2.73;;;23.70;33.30;;;;;;5040461;28;20834;-73
2022/06/01 11:19:52;;;;;;;4.20;2.30;;;23.80;33.30;;;;;;5045722;28;20509;-73
2022/06/01 11:22:49;;;;;;;3.30;2.43;;;23.60;33.20;;;;;;5039032;28;21041;-72
2022/06/01 11:25:52;;;;;;;4.13;2.60;;;23.20;34.10;;;;;;5004968;28;20470;-75
2022/06/01 11:28:18;;;;;;;3.80;2.47;;;23.20;34.40;;;;;;5044261;28;21092;-75
2022/06/01 11:31:06;;;;;;;2.67;2.20;;;23.20;34.80;;;;;;5038521;28;20417;-75
2022/06/01 11:33:58;;;;;;;3.43;2.30;;;23.40;34.50;;;;;;5034158;28;20250;-74
2022/06/01 11:36:36;;;;;;;5.70;3.93;;;23.70;33.10;;;;;;5041361;28;20460;-74
2022/06/01 11:39:16;;;;;;;3.20;2.60;;;23.60;33.30;;;;;;5023510;28;20452;-74
2022/06/01 11:41:57;;;;;;;2.63;2.30;;;23.70;33.60;;;;;;5047205;28;20433;-75
2022/06/01 11:44:32;;;;;;;3.33;2.20;;;23.60;32.50;;;;;;5034199;28;20462;-74
2022/06/01 11:47:14;;;;;;;3.30;2.27;;;23.80;32.80;;;;;;5049901;28;20501;-74
2022/06/01 11:49:43;;;;;;;3.10;1.93;;;23.90;31.60;;;;;;5037031;28;20422;-74
2022/06/01 11:52:32;;;;;;;13.13;2.50;;;24.00;32.40;;;;;;5050728;28;20447;-74
2022/06/01 11:55:37;;;;;;;2.47;2.17;;;24.30;31.50;;;;;;5041093;28;20866;-74
2022/06/01 11:58:05;;;;;;;2.73;1.87;;;24.50;31.30;;;;;;5064616;28;20463;-75
2022/06/01 12:00:48;;;;;;;3.43;2.00;;;24.80;31.10;;;;;;5064798;28;21095;-75
2022/06/01 12:03:19;;;;;;;1.90;1.83;;;24.70;29.60;;;;;;5064495;28;20559;-74
2022/06/01 12:06:11;;;;;;;3.33;2.23;;;24.60;30.70;;;;;;5059644;28;20549;-75
2022/06/01 12:08:57;;;;;;;2.53;2.10;;;24.60;29.80;;;;;;5065365;28;20443;-73
2022/06/01 12:11:40;;;;;;;3.00;2.00;;;24.60;30.70;;;;;;5069157;28;20416;-74
2022/06/01 12:14:30;;;;;;;7.10;2.40;;;24.80;30.50;;;;;;5059247;28;21027;-75
2022/06/01 12:17:17;;;;;;;3.97;2.50;;;24.60;30.50;;;;;;5063073;28;20468;-75
2022/06/01 12:19:47;;;;;;;4.50;2.50;;;24.50;32.10;;;;;;5068278;28;20419;-74
2022/06/01 12:28:31;;;;;;;4.80;2.93;;;24.00;33.50;;;;;;5061027;28;20455;-74
2022/06/01 12:31:26;;;;;;;4.23;2.20;;;24.30;32.50;;;;;;5046190;28;20417;-74
2022/06/01 12:34:00;;;;;;;3.43;2.33;;;24.50;33.60;;;;;;5041588;28;20906;-74
2022/06/01 12:36:32;;;;;;;3.10;2.30;;;25.10;32.40;;;;;;5032973;28;20466;-74
2022/06/01 12:38:59;;;;;;;4.47;2.97;;;24.80;32.70;;;;;;5047365;28;20467;-74
2022/06/01 12:41:27;;;;;;;6.30;2.97;;;24.40;34.00;;;;;;5041740;28;20438;-74
2022/06/01 12:43:58;;;;;;;3.77;2.57;;;24.20;34.50;;;;;;5046214;28;20463;-76
2022/06/01 12:46:29;;;;;;;7.00;2.40;;;24.20;34.40;;;;;;5039797;28;20465;-74
2022/06/01 12:49:20;;;;;;;3.40;2.27;;;24.20;34.30;;;;;;5040740;28;20436;-73
2022/06/01 12:51:46;;;;;;;4.00;2.63;;;24.30;34.40;;;;;;5044132;28;20439;-74
2022/06/01 12:54:43;;;;;;;5.70;3.27;;;24.00;34.40;;;;;;5045517;28;20513;-74
2022/06/01 12:57:21;;;;;;;8.83;3.37;;;23.90;35.30;;;;;;5040050;28;20220;-74
2022/06/01 13:00:03;;;;;;;4.93;2.53;;;24.10;36.20;;;;;;5045307;28;20428;-75
2022/06/01 13:02:34;;;;;;;3.07;2.40;;;24.20;35.70;;;;;;5035067;28;20421;-74
2022/06/01 13:05:03;;;;;;;7.47;2.60;;;24.40;35.50;;;;;;5040517;28;20562;-75
2022/06/01 13:07:39;;;;;;;5.03;2.70;;;24.70;34.30;;;;;;5043205;28;20419;-74
2022/06/01 13:10:33;;;;;;;6.60;3.60;;;24.60;34.50;;;;;;5046298;28;20420;-74
2022/06/01 13:13:20;;;;;;;10.60;3.83;;;24.10;35.90;;;;;;5038404;28;20511;-74
2022/06/01 13:15:56;;;;;;;7.33;3.70;;;24.30;35.50;;;;;;5041146;28;20458;-74
2022/06/01 13:18:32;;;;;;;3.53;2.90;;;24.20;35.60;;;;;;5041689;28;20418;-74
2022/06/01 13:21:21;;;;;;;3.63;2.60;;;24.60;34.80;;;;;;5048895;28;20419;-74
2022/06/01 13:23:52;;;;;;;3.93;2.60;;;25.10;35.30;;;;;;5046113;28;20937;-74
2022/06/01 13:26:28;;;;;;;3.57;3.10;;;25.30;34.50;;;;;;5040112;28;20631;-73
2022/06/01 13:28:58;;;;;;;4.17;3.00;;;24.50;37.20;;;;;;5050543;28;20413;-74
2022/06/01 13:31:24;;;;;;;3.87;2.60;;;23.60;39.20;;;;;;5052343;28;20465;-75
2022/06/01 13:33:49;;;;;;;4.30;2.40;;;23.40;40.30;;;;;;5052438;28;20432;-75
2022/06/01 13:36:40;;;;;;;5.40;3.30;;;23.60;40.00;;;;;;5049114;28;20529;-75
2022/06/01 13:39:12;;;;;;;4.70;3.40;;;23.10;40.80;;;;;;5059960;28;20210;-74
2022/06/01 13:41:53;;;;;;;7.00;3.53;;;23.10;40.80;;;;;;5062109;28;20424;-75
2022/06/01 13:44:47;;;;;;;3.90;3.30;;;23.30;40.70;;;;;;5047786;28;20610;-74